地図

経路データ

SID SEASON NUMBER BASIN SUBBASIN NAME ISO_TIME NATURE LAT LON WMO_WIND WMO_PRES WMO_AGENCY TRACK_TYPE DIST2LAND LANDFALL IFLAG USA_AGENCY USA_ATCF_ID USA_LAT USA_LON USA_RECORD USA_STATUS USA_WIND USA_PRES USA_SSHS USA_R34_NE USA_R34_SE USA_R34_SW USA_R34_NW USA_R50_NE USA_R50_SE USA_R50_SW USA_R50_NW USA_R64_NE USA_R64_SE USA_R64_SW USA_R64_NW USA_POCI USA_ROCI USA_RMW USA_EYE TOKYO_LAT TOKYO_LON TOKYO_GRADE TOKYO_WIND TOKYO_PRES TOKYO_R50_DIR TOKYO_R50_LONG TOKYO_R50_SHORT TOKYO_R30_DIR TOKYO_R30_LONG TOKYO_R30_SHORT TOKYO_LAND CMA_LAT CMA_LON CMA_CAT CMA_WIND CMA_PRES HKO_LAT HKO_LON HKO_CAT HKO_WIND HKO_PRES NEWDELHI_LAT NEWDELHI_LON NEWDELHI_GRADE NEWDELHI_WIND NEWDELHI_PRES NEWDELHI_CI NEWDELHI_DP NEWDELHI_POCI REUNION_LAT REUNION_LON REUNION_TYPE REUNION_WIND REUNION_PRES REUNION_TNUM REUNION_CI REUNION_RMW REUNION_R34_NE REUNION_R34_SE REUNION_R34_SW REUNION_R34_NW REUNION_R50_NE REUNION_R50_SE REUNION_R50_SW REUNION_R50_NW REUNION_R64_NE REUNION_R64_SE REUNION_R64_SW REUNION_R64_NW BOM_LAT BOM_LON BOM_TYPE BOM_WIND BOM_PRES BOM_TNUM BOM_CI BOM_RMW BOM_R34_NE BOM_R34_SE BOM_R34_SW BOM_R34_NW BOM_R50_NE BOM_R50_SE BOM_R50_SW BOM_R50_NW BOM_R64_NE BOM_R64_SE BOM_R64_SW BOM_R64_NW BOM_ROCI BOM_POCI BOM_EYE BOM_POS_METHOD BOM_PRES_METHOD NADI_LAT NADI_LON NADI_CAT NADI_WIND NADI_PRES WELLINGTON_LAT WELLINGTON_LON WELLINGTON_WIND WELLINGTON_PRES DS824_LAT DS824_LON DS824_STAGE DS824_WIND DS824_PRES TD9636_LAT TD9636_LON TD9636_STAGE TD9636_WIND TD9636_PRES TD9635_LAT TD9635_LON TD9635_WIND TD9635_PRES TD9635_ROCI NEUMANN_LAT NEUMANN_LON NEUMANN_CLASS NEUMANN_WIND NEUMANN_PRES MLC_LAT MLC_LON MLC_CLASS MLC_WIND MLC_PRES USA_GUST BOM_GUST BOM_GUST_PER REUNION_GUST REUNION_GUST_PER USA_SEAHGT USA_SEARAD_NE USA_SEARAD_SE USA_SEARAD_SW USA_SEARAD_NW STORM_SPEED STORM_DIR
2009269N10163 2009 73 WP MM NOT_NAMED 2009-09-26 00:00:00 NR 10.4000 163.000 main 1960 1928 O_____________ jtwc_wp WP182009 10.4000 163.000 DB 15 1010 -3 12 285
2009269N10163 2009 73 WP MM NOT_NAMED 2009-09-26 03:00:00 NR 10.5577 162.403 main 1937 1907 P_____________ WP182009 10.5577 162.403 DB 15 1010 -3 12 284
2009269N10163 2009 73 WP MM NOT_NAMED 2009-09-26 06:00:00 NR 10.7000 161.800 main 1907 1880 O_____________ jtwc_wp WP182009 10.7000 161.800 DB 15 1010 -3 12 282
2009269N10163 2009 73 WP MM NOT_NAMED 2009-09-26 09:00:00 NR 10.8024 161.193 main 1880 1844 P_____________ WP182009 10.8024 161.193 DB 17 1008 -3 12 275
2009269N10163 2009 73 WP MM NOT_NAMED 2009-09-26 12:00:00 NR 10.8000 160.600 main 1844 1797 O_____________ jtwc_wp WP182009 10.8000 160.600 DB 20 1007 -3 12 260
2009269N10163 2009 73 WP MM NOT_NAMED 2009-09-26 15:00:00 NR 10.6074 160.027 main 1791 1743 P_____________ WP182009 10.6074 160.027 DB 20 1007 -3 12 250
2009269N10163 2009 73 WP MM NOT_NAMED 2009-09-26 18:00:00 NR 10.4000 159.500 main 1743 1721 O_____________ jtwc_wp WP182009 10.4000 159.500 DB 20 1007 -3 10 257
2009269N10163 2009 73 WP MM NOT_NAMED 2009-09-26 21:00:00 NR 10.3774 159.035 main 1716 1690 P_____________ WP182009 10.3774 159.035 DB 20 1007 -3 10 269
2009269N10163 2009 73 WP MM NOT_NAMED 2009-09-27 00:00:00 TS 10.3800 158.440 main 1684 1655 O_O___________ jtwc_wp WP182009 10.4000 158.600 DB 20 1007 -3 1008 150 25 10.3000 157.800 1 25 1004 11 268
2009269N10163 2009 73 WP MM NOT_NAMED 2009-09-27 03:00:00 TS 10.3350 157.939 main 1650 1629 P_P___________ WP182009 10.3500 158.135 DB 20 1007 -3 1007 165 30 10.3050 157.548 1 25 1003 9 265
2009269N10163 2009 73 WP MM NOT_NAMED 2009-09-27 06:00:00 TS 10.3000 157.529 main 1629 1615 O_O___________ jtwc_wp WP182009 10.3000 157.700 DB 20 1007 -3 1007 180 35 10.3000 157.300 1 25 1002 7 267
2009269N10163 2009 73 WP MM NOT_NAMED 2009-09-27 09:00:00 TS 10.2937 157.193 main 1615 1601 P_P___________ WP182009 10.3149 157.328 DB 22 1005 -3 1007 180 40 10.2725 157.058 1 25 1002 6 265
2009269N10163 2009 73 WP MM NOT_NAMED 2009-09-27 12:00:00 TS 10.2500 156.900 main 1601 1567 O_O___________ jtwc_wp WP182009 10.3000 157.000 TD 25 1004 -1 1007 180 45 10.2000 156.800 1 25 1002 6 255
2009269N10163 2009 73 WP MM NOT_NAMED 2009-09-27 15:00:00 TS 10.1375 156.604 main 1567 1543 P_P___________ WP182009 10.1950 156.685 TD 27 1002 -1 1007 185 45 10.0799 156.523 1 25 1002 7 243
2009269N10163 2009 73 WP MM NOT_NAMED 2009-09-27 18:00:00 TS 9.95000 156.300 main 1543 1500 O_O___________ jtwc_wp WP182009 10.0000 156.400 TD 30 1000 -1 1007 190 45 9.90000 156.200 1 25 1002 8 232
2009269N10163 2009 73 WP MM NOT_NAMED 2009-09-27 21:00:00 TS 9.67494 155.994 main 1500 1456 P_P___________ WP182009 9.69985 156.180 TD 30 1000 -1 1007 190 45 9.65003 155.807 1 25 1002 8 229
2009269N10163 2009 73 WP MM NOT_NAMED 2009-09-28 00:00:00 TS 9.40000 155.650 main 1456 1419 O_O___________ jtwc_wp WP182009 9.40000 155.900 TD 30 1000 -1 1007 190 45 9.40000 155.400 1 25 1002 40 9 237
2009269N10163 2009 73 WP MM NOT_NAMED 2009-09-28 03:00:00 TS 9.19376 155.240 main 1416 1391 P_P___________ WP182009 9.19009 155.430 TD 30 1000 -1 1007 190 45 9.19742 155.050 1 25 1002 9 250
2009269N10163 2009 73 WP MM NOT_NAMED 2009-09-28 06:00:00 TS 9.10000 154.800 main 1391 1378 O_O___________ jtwc_wp WP182009 9.10000 154.900 TD 30 1000 -1 1007 190 45 9.10000 154.700 1 25 1002 9 267
2009269N10163 2009 73 WP MM NOT_NAMED 2009-09-28 09:00:00 TS 9.14369 154.379 main 1378 1378 P_P___________ WP182009 9.13992 154.443 TD 30 1000 -1 1007 190 45 9.14745 154.315 1 27 1001 9 283
2009269N10163 2009 73 WP MM NOT_NAMED 2009-09-28 12:00:00 TS 9.30000 153.950 main 1387 1382 O_O___________ jtwc_wp WP182009 9.30000 154.000 TD 30 1000 -1 1007 190 45 9.30000 153.900 1 29 1000 9 292
2009269N10163 2009 73 WP MM NOT_NAMED 2009-09-28 15:00:00 TS 9.48363 153.522 main 1397 1394 P_P___________ WP182009 9.51235 153.572 TD 30 999 -1 1006 200 42 9.45491 153.472 1 29 1000 10 297
2009269N10163 2009 73 WP MM NOT_NAMED 2009-09-28 18:00:00 TS 9.75000 153.050 main 1421 1410 O_O___________ jtwc_wp WP182009 9.80000 153.100 TD 30 999 -1 1005 210 40 9.70000 153.000 1 29 1000 40 12 302
2009269N10163 2009 73 WP MM NOT_NAMED 2009-09-28 21:00:00 TS 10.0987 152.509 main 1445 1443 P_P___________ WP182009 10.1199 152.537 TD 30 999 -1 1004 205 37 10.0774 152.480 1 29 1000 14 304
2009269N10163 2009 73 WP MM NOT_NAMED 2009-09-29 00:00:00 TS 10.5000 151.900 main 1483 1482 O_O___________ jtwc_wp WP182009 10.5000 151.900 TD 30 1000 -1 1003 200 35 10.5000 151.900 1 29 1000 15 303
2009269N10163 2009 73 WP MM NOT_NAMED 2009-09-29 03:00:00 TS 10.9073 151.266 main 1519 1516 P_P___________ WP182009 10.9574 151.223 TD 30 1000 -1 1003 200 35 10.8571 151.310 1 29 1000 16 301
2009269N10163 2009 73 WP MM NOT_NAMED 2009-09-29 06:00:00 TS 11.3000 150.550 main 1542 1540 O_O___________ jtwc_wp WP182009 11.4000 150.500 TD 30 1000 -1 1003 200 35 11.2000 150.600 1 29 1000 17 296
2009269N10163 2009 73 WP MM NOT_NAMED 2009-09-29 09:00:00 TS 11.6324 149.730 main 1555 1555 P_P___________ WP182009 11.7224 149.757 TD 30 1000 -1 1003 200 35 11.5425 149.702 1 29 1000 18 291
2009269N10163 2009 73 WP MM NOT_NAMED 2009-09-29 12:00:00 TS 11.9500 148.850 main 1588 1577 O_O___________ jtwc_wp WP182009 12.0000 149.000 TD 30 1000 -1 1003 200 35 11.9000 148.700 1 29 1000 18 291
2009269N10163 2009 73 WP MM NOT_NAMED 2009-09-29 15:00:00 TS 12.3073 147.975 main 1614 1614 P_P___________ WP182009 12.3073 148.250 TD 30 1000 -1 1004 190 35 12.3073 147.700 1 29 1001 19 292
2009269N10163 2009 73 WP MM NOT_NAMED 2009-09-29 18:00:00 TS 12.6571 147.043 main 1658 1658 O_O___________ jtwc_wp WP182009 12.6000 147.500 TD 30 1000 -1 1005 180 35 12.7000 146.700 1 29 1002 20 289
2009269N10163 2009 73 WP MM NOT_NAMED 2009-09-29 21:00:00 TS 12.9585 146.048 main 1693 1693 P_P___________ WP182009 12.8604 146.750 TD 25 1003 -1 1004 160 37 13.0075 145.697 1 29 1002 20 287
2009269N10163 2009 73 WP MM NOT_NAMED 2009-09-30 00:00:00 TS 13.2500 145.100 main 1733 1733 O_O___________ jtwc_wp WP182009 13.1000 146.000 DB 20 1007 -3 1004 140 40 13.3000 144.800 1 29 1002 20 290
2009269N10163 2009 73 WP MM NOT_NAMED 2009-09-30 03:00:00 TS 13.6350 144.093 main 1780 1780 __P___________ WP182009 DB -3 13.6350 144.093 1 29 1003 17 296
2009269N10163 2009 73 WP MM NOT_NAMED 2009-09-30 06:00:00 TS 14.0000 143.500 main 1835 __O___________ 14.0000 143.500 1 29 1004 14 302

デジタル台風データ・検索

IBTrACS Databaseについて

本データベースは、米国NOAAが公開する1842年以降の世界の熱帯低気圧のベストトラックデータアーカイブInternational Best Track Archive for Climate Stewardship (IBTrACS)を、ウェブで閲覧しやすい形式に変換したものです。

最終更新日:2021-10-08